Meteo Giornale » Osservazioni meteo Italia » Monte Terminillo

ore: 06:55 - Osservazioni Meteo Monte Terminillo
Lat. 42° 28' N Lon. 12° 59' E Alt. 1874 metri s.l.m.

sereno Europe/Rome

19 °C

Sereno

Temp. 24 Ore

13 °C

22 °C

Sud

11.1 Km/h

Dew point 11 °C

Umidità 59 %

Visibilità  0 Km

Il sole sorge alle ore 06:16

Il sole tramonta alle ore 20:07

Data e Ora Cielo e Fenomeni T °C DP °C Um. % Pres. hPa Vis. km Vento km/h
Oggi h: 06:55 sereno Sereno 19 11 59 1021 0 S 11.1
Oggi h: 05:55 sereno Sereno 19 10 55 1020 0 N 5.5
Oggi h: 04:55 sereno Sereno 19 10 55 1020 0 N 3.7
Oggi h: 03:55 sereno Sereno 19 12 63 1021 0 S/SO 14.8
Oggi h: 02:55 sereno Sereno 20 11 56 1021 0 S/SO 13
Oggi h: 01:55 sereno Sereno 20 11 56 1021 0 S 14.8
Oggi h: 00:55 sereno Sereno 20 11 56 1021 0 S/SO 20.3
Ieri h: 23:55 sereno Sereno 21 12 56 1021 0 N 3.7
Ieri h: 22:55 sereno Sereno 22 10 46 1021 0 N 5.5
Ieri h: 21:55 sereno Sereno 22 11 49 1021 0 S/SO 13
Ieri h: 20:55 sereno Sereno 22 11 49 1020 0 S/SO 13
Ieri h: 19:55 sereno Sereno 22 10 46 1020 0 S 7.4
Ieri h: 18:55 sereno Sereno 22 11 49 1019 0 N 5.5
Ieri h: 17:55 sereno Sereno 21 11 52 1019 0 N 5.5
Ieri h: 16:55 sereno Sereno 21 9 46 1019 0 O/NO 9.3
Ieri h: 15:55 sereno Sereno 20 6 39 1019 0 O/NO 11.1
Ieri h: 14:55 sereno Sereno 19 6 42 1019 0 O/NO 9.3
Ieri h: 13:55 sereno Sereno 18 3 36 1019 0 O/NO 11.1
Ieri h: 12:55 sereno Sereno 17 3 39 1019 0 O/NO 9.3
Ieri h: 11:55 sereno Sereno 16 5 47 1019 0 O 9.3
Ieri h: 10:55 sereno Sereno 13 6 62 1019 0 O/NO 13
Ieri h: 09:55 sereno Sereno 13 7 66 1020 0 O/NO 11.1
Ieri h: 08:55 sereno Sereno 14 8 67 1020 0 O 9.3
Ieri h: 07:55 sereno Sereno 14 8 67 1020 0 O 11.1